UAL2122 KEWR-MDPC
Flight info
| Callsign | UAL2122 |
|---|---|
| Flight time | 3h 17m |
| Altitude | 35000 |
| Route | ELVAE DCT NECCK DCT DIXIE Y481 OHRYN/N0451F340 Y490 BEHHR/M079F340 Y490 ROLLE DCT ATUGI/M079F350 L454 LUCTI/N0463F350 L454 MNDEZ DCT FIPEK/N0466F360 DCT BETIR |
| Aircraft | B739/M-SADE3GHIJ4RWXYZ/LB1 |
Departure
| Time | 2026-04-23 13:07 |
|---|---|
| Airport | Newark Liberty International Airport (KEWR) |
Arrival
| Time | 2026-04-23 16:24 |
|---|---|
| Airport | Punta Cana International Airport (MDPC) |
| Time | Latitude | Longitude | Altitude | Speed | Heading |
|---|---|---|---|---|---|
| 2026-04-23 12:49 | 40.68444 | -74.18334 | 24 ft | 0 kts | 185° |
| 2026-04-23 12:58 | 40.68454 | -74.18333 | 30 ft | 4 kts | 185° |
| 2026-04-23 12:58 | 40.68479 | -74.18333 | 21 ft | 4 kts | 164° |
| 2026-04-23 12:58 | 40.68501 | -74.18349 | 23 ft | 4 kts | 121° |
| 2026-04-23 12:59 | 40.68507 | -74.18367 | 23 ft | 0 kts | 95° |
| 2026-04-23 13:01 | 40.68506 | -74.18355 | 21 ft | 3 kts | 95° |
| 2026-04-23 13:01 | 40.68504 | -74.18326 | 23 ft | 7 kts | 95° |
| 2026-04-23 13:01 | 40.68497 | -74.18233 | 21 ft | 12 kts | 99° |
| 2026-04-23 13:02 | 40.68460 | -74.18135 | 21 ft | 12 kts | 127° |
| 2026-04-23 13:02 | 40.68420 | -74.18042 | 21 ft | 12 kts | 116° |
| 2026-04-23 13:02 | 40.68386 | -74.17948 | 21 ft | 11 kts | 116° |
| 2026-04-23 13:02 | 40.68352 | -74.17857 | 21 ft | 11 kts | 116° |
| 2026-04-23 13:03 | 40.68320 | -74.17767 | 21 ft | 11 kts | 116° |
| 2026-04-23 13:03 | 40.68288 | -74.17682 | 21 ft | 10 kts | 117° |
| 2026-04-23 13:03 | 40.68227 | -74.17668 | 21 ft | 10 kts | 204° |
| 2026-04-23 13:03 | 40.68164 | -74.17708 | 21 ft | 10 kts | 206° |
| 2026-04-23 13:04 | 40.68094 | -74.17752 | 21 ft | 12 kts | 206° |
| 2026-04-23 13:04 | 40.67997 | -74.17814 | 21 ft | 19 kts | 206° |
| 2026-04-23 13:04 | 40.67872 | -74.17894 | 21 ft | 20 kts | 205° |
| 2026-04-23 13:04 | 40.67749 | -74.17972 | 21 ft | 19 kts | 205° |
| 2026-04-23 13:05 | 40.67640 | -74.18042 | 21 ft | 9 kts | 205° |
| 2026-04-23 13:05 | 40.67585 | -74.18022 | 21 ft | 9 kts | 133° |
| 2026-04-23 13:05 | 40.67557 | -74.17953 | 22 ft | 8 kts | 94° |
| 2026-04-23 13:05 | 40.67587 | -74.17915 | 22 ft | 1 kts | 26° |
| 2026-04-23 13:06 | 40.67695 | -74.17846 | 20 ft | 47 kts | 25° |
| 2026-04-23 13:06 | 40.68168 | -74.17546 | 22 ft | 105 kts | 26° |
| 2026-04-23 13:06 | 40.68977 | -74.17031 | 21 ft | 151 kts | 25° |
| 2026-04-23 13:07 | 40.70022 | -74.16361 | 153 ft | 175 kts | 25° |
| 2026-04-23 13:07 | 40.71108 | -74.15640 | 723 ft | 173 kts | 26° |
| 2026-04-23 13:07 | 40.72045 | -74.14645 | 1276 ft | 172 kts | 44° |
| 2026-04-23 13:07 | 40.72894 | -74.13533 | 1818 ft | 173 kts | 40° |
| 2026-04-23 13:08 | 40.73817 | -74.12382 | 2044 ft | 192 kts | 39° |
| 2026-04-23 13:08 | 40.74826 | -74.11137 | 2223 ft | 210 kts | 40° |
| 2026-04-23 13:08 | 40.76079 | -74.10058 | 2398 ft | 222 kts | 11° |
| 2026-04-23 13:08 | 40.77600 | -74.10283 | 2745 ft | 229 kts | 334° |
| 2026-04-23 13:09 | 40.78759 | -74.11805 | 2974 ft | 249 kts | 295° |
| 2026-04-23 13:09 | 40.79222 | -74.14036 | 3620 ft | 253 kts | 284° |
| 2026-04-23 13:09 | 40.79568 | -74.16325 | 4372 ft | 253 kts | 284° |
| 2026-04-23 13:09 | 40.79890 | -74.18602 | 5092 ft | 252 kts | 284° |
| 2026-04-23 13:10 | 40.79999 | -74.20915 | 5781 ft | 259 kts | 261° |
| 2026-04-23 13:10 | 40.79178 | -74.23063 | 6454 ft | 271 kts | 234° |
| 2026-04-23 13:10 | 40.77640 | -74.24598 | 6996 ft | 287 kts | 210° |
| 2026-04-23 13:10 | 40.75701 | -74.25298 | 7534 ft | 299 kts | 192° |
| 2026-04-23 13:11 | 40.73614 | -74.25562 | 8140 ft | 303 kts | 189° |
| 2026-04-23 13:11 | 40.71501 | -74.25772 | 8704 ft | 307 kts | 190° |
| 2026-04-23 13:11 | 40.69355 | -74.26004 | 9295 ft | 310 kts | 190° |
| 2026-04-23 13:11 | 40.67201 | -74.26241 | 9927 ft | 311 kts | 191° |
| 2026-04-23 13:12 | 40.65022 | -74.26480 | 10339 ft | 320 kts | 191° |
| 2026-04-23 13:12 | 40.62731 | -74.26735 | 10467 ft | 339 kts | 191° |
| 2026-04-23 13:12 | 40.60317 | -74.26999 | 10612 ft | 357 kts | 190° |
| 2026-04-23 13:12 | 40.57815 | -74.27270 | 10750 ft | 373 kts | 190° |
| 2026-04-23 13:13 | 40.55160 | -74.27294 | 11045 ft | 389 kts | 179° |
| 2026-04-23 13:13 | 40.52472 | -74.26631 | 11554 ft | 397 kts | 167° |
| 2026-04-23 13:13 | 40.49855 | -74.25398 | 12127 ft | 401 kts | 162° |
| 2026-04-23 13:13 | 40.47234 | -74.24047 | 12653 ft | 404 kts | 162° |
| 2026-04-23 13:14 | 40.44606 | -74.22686 | 13249 ft | 406 kts | 162° |
| 2026-04-23 13:14 | 40.41962 | -74.21339 | 13822 ft | 409 kts | 163° |
| 2026-04-23 13:14 | 40.39319 | -74.20016 | 14314 ft | 413 kts | 163° |
| 2026-04-23 13:14 | 40.36612 | -74.18674 | 14798 ft | 417 kts | 163° |
| 2026-04-23 13:15 | 40.33876 | -74.17327 | 15306 ft | 421 kts | 164° |
| 2026-04-23 13:15 | 40.31060 | -74.16305 | 15796 ft | 420 kts | 174° |
| 2026-04-23 13:15 | 40.28167 | -74.15926 | 16291 ft | 417 kts | 185° |
| 2026-04-23 13:15 | 40.25255 | -74.16018 | 16777 ft | 419 kts | 187° |
| 2026-04-23 13:16 | 40.22331 | -74.16142 | 17289 ft | 422 kts | 187° |
| 2026-04-23 13:16 | 40.19373 | -74.16230 | 17783 ft | 426 kts | 186° |
| 2026-04-23 13:16 | 40.16418 | -74.16248 | 18214 ft | 434 kts | 180° |
| 2026-04-23 13:16 | 40.13438 | -74.15338 | 18578 ft | 449 kts | 158° |
| 2026-04-23 13:17 | 40.10817 | -74.13110 | 19018 ft | 454 kts | 136° |
| 2026-04-23 13:17 | 40.08827 | -74.09922 | 19452 ft | 454 kts | 117° |
| 2026-04-23 13:17 | 40.07657 | -74.06110 | 19853 ft | 451 kts | 101° |
| 2026-04-23 13:17 | 40.06864 | -74.02137 | 20294 ft | 454 kts | 100° |
| 2026-04-23 13:18 | 40.06099 | -73.98127 | 20684 ft | 459 kts | 99° |
| 2026-04-23 13:18 | 40.05327 | -73.94062 | 21029 ft | 463 kts | 99° |
| 2026-04-23 13:18 | 40.04535 | -73.89970 | 21460 ft | 466 kts | 100° |
| 2026-04-23 13:18 | 40.03722 | -73.85857 | 21907 ft | 468 kts | 100° |
| 2026-04-23 13:19 | 40.02892 | -73.81732 | 22320 ft | 471 kts | 100° |
| 2026-04-23 13:19 | 40.02050 | -73.77587 | 22740 ft | 474 kts | 100° |
| 2026-04-23 13:19 | 40.01196 | -73.73415 | 23146 ft | 477 kts | 100° |
| 2026-04-23 13:19 | 40.00346 | -73.69276 | 23535 ft | 480 kts | 100° |
| 2026-04-23 13:20 | 39.99476 | -73.65047 | 23892 ft | 482 kts | 100° |
| 2026-04-23 13:20 | 39.98603 | -73.60809 | 24235 ft | 484 kts | 100° |
| 2026-04-23 13:20 | 39.97726 | -73.56562 | 24598 ft | 486 kts | 100° |
| 2026-04-23 13:20 | 39.96843 | -73.52288 | 24948 ft | 488 kts | 99° |
| 2026-04-23 13:21 | 39.95965 | -73.48050 | 25286 ft | 490 kts | 99° |
| 2026-04-23 13:21 | 39.95074 | -73.43752 | 25620 ft | 492 kts | 99° |
| 2026-04-23 13:21 | 39.94179 | -73.39445 | 25950 ft | 494 kts | 99° |
| 2026-04-23 13:21 | 39.93276 | -73.35109 | 26270 ft | 496 kts | 99° |
| 2026-04-23 13:22 | 39.92370 | -73.30765 | 26595 ft | 498 kts | 99° |
| 2026-04-23 13:22 | 39.91456 | -73.26395 | 26886 ft | 501 kts | 99° |
| 2026-04-23 13:22 | 39.90537 | -73.22002 | 27156 ft | 504 kts | 99° |
| 2026-04-23 13:22 | 39.89609 | -73.17587 | 27477 ft | 506 kts | 98° |
| 2026-04-23 13:23 | 39.88689 | -73.13218 | 27781 ft | 507 kts | 98° |
| 2026-04-23 13:23 | 39.87755 | -73.08794 | 28178 ft | 506 kts | 98° |
| 2026-04-23 13:23 | 39.86821 | -73.04374 | 28495 ft | 508 kts | 98° |
| 2026-04-23 13:23 | 39.85881 | -72.99931 | 28739 ft | 511 kts | 98° |
| 2026-04-23 13:24 | 39.84931 | -72.95454 | 29074 ft | 511 kts | 98° |
| 2026-04-23 13:24 | 39.83983 | -72.90997 | 29517 ft | 510 kts | 98° |
| 2026-04-23 13:24 | 39.83037 | -72.86557 | 29945 ft | 508 kts | 98° |
| 2026-04-23 13:24 | 39.82074 | -72.82130 | 30339 ft | 508 kts | 99° |
| 2026-04-23 13:25 | 39.80996 | -72.77797 | 30631 ft | 510 kts | 101° |
| 2026-04-23 13:25 | 39.79814 | -72.73432 | 30918 ft | 512 kts | 102° |
| 2026-04-23 13:25 | 39.78600 | -72.69072 | 31200 ft | 512 kts | 102° |
| 2026-04-23 13:25 | 39.77392 | -72.64729 | 31510 ft | 511 kts | 102° |
| 2026-04-23 13:26 | 39.76199 | -72.60387 | 31821 ft | 510 kts | 102° |
| 2026-04-23 13:26 | 39.75019 | -72.56036 | 32090 ft | 510 kts | 102° |
| 2026-04-23 13:26 | 39.73845 | -72.51683 | 32335 ft | 511 kts | 102° |
| 2026-04-23 13:26 | 39.72670 | -72.47325 | 32612 ft | 510 kts | 102° |
| 2026-04-23 13:27 | 39.71492 | -72.42974 | 32909 ft | 509 kts | 102° |
| 2026-04-23 13:27 | 39.70319 | -72.38692 | 33184 ft | 509 kts | 102° |
| 2026-04-23 13:27 | 39.69111 | -72.34356 | 33449 ft | 509 kts | 102° |
| 2026-04-23 13:27 | 39.67901 | -72.30036 | 33700 ft | 509 kts | 102° |
| 2026-04-23 13:28 | 39.66693 | -72.25718 | 33937 ft | 508 kts | 102° |
| 2026-04-23 13:28 | 39.65327 | -72.21458 | 34162 ft | 516 kts | 111° |
| 2026-04-23 13:28 | 39.63488 | -72.17434 | 34399 ft | 521 kts | 120° |
| 2026-04-23 13:28 | 39.61189 | -72.13761 | 34644 ft | 525 kts | 129° |
| 2026-04-23 13:29 | 39.58722 | -72.10361 | 34895 ft | 524 kts | 130° |
| 2026-04-23 13:29 | 39.56191 | -72.06943 | 35032 ft | 524 kts | 130° |
| 2026-04-23 13:29 | 39.53658 | -72.03516 | 35017 ft | 527 kts | 130° |
| 2026-04-23 13:30 | 39.48636 | -71.96622 | 35011 ft | 525 kts | 130° |
| 2026-04-23 13:30 | 39.43668 | -71.89717 | 35037 ft | 522 kts | 130° |
| 2026-04-23 13:31 | 39.38728 | -71.82850 | 35025 ft | 521 kts | 130° |
| 2026-04-23 13:31 | 39.33785 | -71.76003 | 35023 ft | 520 kts | 130° |
| 2026-04-23 13:32 | 39.28874 | -71.69219 | 35023 ft | 519 kts | 130° |
| 2026-04-23 13:32 | 39.23922 | -71.62414 | 35021 ft | 520 kts | 133° |
| 2026-04-23 13:32 | 39.21101 | -71.59483 | 35007 ft | 523 kts | 149° |
| 2026-04-23 13:33 | 39.17822 | -71.57485 | 35039 ft | 521 kts | 163° |
| 2026-04-23 13:33 | 39.14319 | -71.56420 | 35022 ft | 516 kts | 179° |
| 2026-04-23 13:33 | 39.10792 | -71.56181 | 35059 ft | 513 kts | 183° |
| 2026-04-23 13:34 | 39.03625 | -71.55921 | 35032 ft | 517 kts | 183° |
| 2026-04-23 13:34 | 38.96409 | -71.55542 | 35013 ft | 521 kts | 182° |
| 2026-04-23 13:35 | 38.89185 | -71.55076 | 35009 ft | 522 kts | 182° |
| 2026-04-23 13:35 | 38.81940 | -71.54613 | 35014 ft | 521 kts | 182° |
| 2026-04-23 13:36 | 38.74711 | -71.54189 | 34992 ft | 517 kts | 182° |
| 2026-04-23 13:36 | 38.67606 | -71.53789 | 35004 ft | 506 kts | 182° |
| 2026-04-23 13:37 | 38.60596 | -71.53395 | 35018 ft | 503 kts | 182° |
| 2026-04-23 13:37 | 38.53661 | -71.53205 | 34987 ft | 497 kts | 191° |
| 2026-04-23 13:38 | 38.46807 | -71.54241 | 35020 ft | 497 kts | 194° |
| 2026-04-23 13:38 | 38.39924 | -71.55415 | 35019 ft | 500 kts | 194° |
| 2026-04-23 13:39 | 38.32990 | -71.56527 | 35016 ft | 502 kts | 193° |
| 2026-04-23 13:39 | 38.26066 | -71.57583 | 35019 ft | 501 kts | 193° |
| 2026-04-23 13:40 | 38.19197 | -71.58618 | 35021 ft | 499 kts | 193° |
| 2026-04-23 13:40 | 38.12295 | -71.59660 | 35021 ft | 498 kts | 193° |
| 2026-04-23 13:41 | 38.05429 | -71.60696 | 35020 ft | 496 kts | 193° |
| 2026-04-23 13:41 | 37.98591 | -71.61729 | 35020 ft | 494 kts | 193° |
| 2026-04-23 13:42 | 37.91779 | -71.62755 | 35022 ft | 492 kts | 193° |
| 2026-04-23 13:42 | 37.84988 | -71.63777 | 35023 ft | 490 kts | 193° |
| 2026-04-23 13:43 | 37.78218 | -71.64793 | 35018 ft | 489 kts | 193° |
| 2026-04-23 13:43 | 37.71500 | -71.65800 | 35024 ft | 489 kts | 193° |
| 2026-04-23 13:44 | 37.64730 | -71.66813 | 35002 ft | 489 kts | 193° |
| 2026-04-23 13:44 | 37.57973 | -71.67822 | 35015 ft | 489 kts | 193° |
| 2026-04-23 13:45 | 37.52353 | -71.68660 | 35021 ft | 490 kts | 193° |
| 2026-04-23 13:45 | 37.44429 | -71.69839 | 35001 ft | 491 kts | 193° |
| 2026-04-23 13:46 | 37.37642 | -71.70566 | 35006 ft | 499 kts | 182° |
| 2026-04-23 13:46 | 37.30677 | -71.69872 | 35024 ft | 502 kts | 179° |
| 2026-04-23 13:47 | 37.23696 | -71.69032 | 35021 ft | 503 kts | 179° |
| 2026-04-23 13:47 | 37.16716 | -71.68250 | 35013 ft | 503 kts | 180° |
| 2026-04-23 13:48 | 37.09776 | -71.67522 | 35017 ft | 503 kts | 180° |
| 2026-04-23 13:48 | 37.02807 | -71.66806 | 35021 ft | 502 kts | 180° |
| 2026-04-23 13:49 | 36.95841 | -71.66091 | 35015 ft | 502 kts | 180° |
| 2026-04-23 13:49 | 36.88859 | -71.65373 | 35019 ft | 501 kts | 180° |
| 2026-04-23 13:50 | 36.81954 | -71.64662 | 35020 ft | 501 kts | 180° |
| 2026-04-23 13:50 | 36.75004 | -71.63948 | 35020 ft | 500 kts | 180° |
| 2026-04-23 13:51 | 36.68064 | -71.63236 | 35016 ft | 500 kts | 180° |
| 2026-04-23 13:51 | 36.61131 | -71.62527 | 35021 ft | 499 kts | 180° |
| 2026-04-23 13:52 | 36.55379 | -71.61940 | 35023 ft | 499 kts | 180° |
| 2026-04-23 13:52 | 36.48464 | -71.61234 | 35012 ft | 498 kts | 180° |
| 2026-04-23 13:53 | 36.40430 | -71.60417 | 35027 ft | 498 kts | 180° |
| 2026-04-23 13:53 | 36.34675 | -71.59832 | 35031 ft | 498 kts | 180° |
| 2026-04-23 13:54 | 36.27752 | -71.59130 | 35031 ft | 498 kts | 180° |
| 2026-04-23 13:54 | 36.20841 | -71.58430 | 35028 ft | 498 kts | 180° |
| 2026-04-23 13:55 | 36.13924 | -71.57731 | 35033 ft | 498 kts | 180° |
| 2026-04-23 13:55 | 36.07015 | -71.57034 | 35041 ft | 498 kts | 180° |
| 2026-04-23 13:56 | 36.00108 | -71.56338 | 35029 ft | 498 kts | 179° |
| 2026-04-23 13:56 | 35.93244 | -71.55648 | 35041 ft | 497 kts | 179° |
| 2026-04-23 13:57 | 35.86344 | -71.54955 | 35046 ft | 497 kts | 179° |
| 2026-04-23 13:57 | 35.79443 | -71.54264 | 35049 ft | 497 kts | 179° |
| 2026-04-23 13:58 | 35.72551 | -71.53574 | 35042 ft | 496 kts | 179° |
| 2026-04-23 13:58 | 35.65677 | -71.52887 | 35048 ft | 495 kts | 179° |
| 2026-04-23 13:59 | 35.58838 | -71.51644 | 35060 ft | 498 kts | 171° |
| 2026-04-23 13:59 | 35.52057 | -71.49809 | 35036 ft | 498 kts | 170° |
| 2026-04-23 14:00 | 35.46434 | -71.48277 | 35048 ft | 497 kts | 171° |
| 2026-04-23 14:00 | 35.38548 | -71.46217 | 35061 ft | 496 kts | 171° |
| 2026-04-23 14:01 | 35.31799 | -71.44496 | 35064 ft | 495 kts | 171° |
| 2026-04-23 14:01 | 35.25044 | -71.42780 | 35060 ft | 495 kts | 171° |
| 2026-04-23 14:02 | 35.18349 | -71.41078 | 35070 ft | 494 kts | 171° |
| 2026-04-23 14:02 | 35.11607 | -71.39365 | 35070 ft | 494 kts | 171° |
| 2026-04-23 14:03 | 35.04865 | -71.37654 | 35074 ft | 494 kts | 171° |
| 2026-04-23 14:03 | 34.98133 | -71.35949 | 35075 ft | 494 kts | 171° |
| 2026-04-23 14:04 | 34.91405 | -71.34248 | 35080 ft | 494 kts | 171° |
| 2026-04-23 14:04 | 34.84672 | -71.32549 | 35085 ft | 494 kts | 171° |
| 2026-04-23 14:05 | 34.77980 | -71.30862 | 35072 ft | 494 kts | 171° |
| 2026-04-23 14:05 | 34.71244 | -71.29167 | 35078 ft | 494 kts | 171° |
| 2026-04-23 14:06 | 34.64510 | -71.27476 | 35087 ft | 494 kts | 171° |
| 2026-04-23 14:06 | 34.57773 | -71.25787 | 35093 ft | 494 kts | 171° |
| 2026-04-23 14:07 | 34.51077 | -71.24111 | 35087 ft | 494 kts | 171° |
| 2026-04-23 14:07 | 34.40986 | -71.21589 | 35098 ft | 493 kts | 171° |
| 2026-04-23 14:08 | 34.34254 | -71.19910 | 35102 ft | 493 kts | 171° |
| 2026-04-23 14:08 | 34.27531 | -71.18236 | 35100 ft | 493 kts | 171° |
| 2026-04-23 14:09 | 34.20792 | -71.16560 | 35109 ft | 493 kts | 171° |
| 2026-04-23 14:09 | 34.14116 | -71.14904 | 35109 ft | 492 kts | 171° |
| 2026-04-23 14:10 | 34.07404 | -71.13240 | 35114 ft | 492 kts | 171° |
| 2026-04-23 14:10 | 34.00698 | -71.11581 | 35098 ft | 492 kts | 171° |
| 2026-04-23 14:11 | 33.93997 | -71.09926 | 35119 ft | 491 kts | 171° |
| 2026-04-23 14:11 | 33.87304 | -71.08276 | 35120 ft | 490 kts | 171° |
| 2026-04-23 14:12 | 33.80622 | -71.06630 | 35129 ft | 490 kts | 171° |
| 2026-04-23 14:12 | 33.73941 | -71.04987 | 35126 ft | 490 kts | 171° |
| 2026-04-23 14:13 | 33.67263 | -71.03348 | 35133 ft | 489 kts | 171° |
| 2026-04-23 14:13 | 33.60595 | -71.01716 | 35142 ft | 489 kts | 171° |
| 2026-04-23 14:14 | 33.53973 | -71.00098 | 35150 ft | 488 kts | 171° |
| 2026-04-23 14:14 | 33.47310 | -70.98472 | 35137 ft | 488 kts | 171° |
| 2026-04-23 14:15 | 33.40666 | -70.96852 | 35147 ft | 487 kts | 171° |
| 2026-04-23 14:15 | 33.34012 | -70.95232 | 35157 ft | 487 kts | 171° |
| 2026-04-23 14:16 | 33.27367 | -70.93617 | 35161 ft | 487 kts | 171° |
| 2026-04-23 14:16 | 33.20766 | -70.92016 | 35162 ft | 486 kts | 171° |
| 2026-04-23 14:17 | 33.14132 | -70.90408 | 35165 ft | 486 kts | 171° |
| 2026-04-23 14:17 | 33.07501 | -70.88804 | 35168 ft | 485 kts | 171° |
| 2026-04-23 14:18 | 33.00866 | -70.87202 | 35180 ft | 485 kts | 171° |
| 2026-04-23 14:18 | 32.94252 | -70.85607 | 35166 ft | 485 kts | 171° |
| 2026-04-23 14:19 | 32.87690 | -70.84027 | 35171 ft | 484 kts | 171° |
| 2026-04-23 14:19 | 32.81077 | -70.82437 | 35184 ft | 483 kts | 171° |
| 2026-04-23 14:20 | 32.74520 | -70.80863 | 35181 ft | 482 kts | 171° |
| 2026-04-23 14:20 | 32.67933 | -70.79284 | 35167 ft | 481 kts | 171° |
| 2026-04-23 14:21 | 32.61371 | -70.77713 | 35176 ft | 481 kts | 171° |
| 2026-04-23 14:21 | 32.54816 | -70.76147 | 35182 ft | 480 kts | 171° |
| 2026-04-23 14:22 | 32.48278 | -70.74587 | 35187 ft | 479 kts | 171° |
| 2026-04-23 14:22 | 32.41740 | -70.73029 | 35185 ft | 478 kts | 171° |
| 2026-04-23 14:23 | 32.35219 | -70.71477 | 35193 ft | 477 kts | 171° |
| 2026-04-23 14:23 | 32.28747 | -70.69940 | 35193 ft | 477 kts | 171° |
| 2026-04-23 14:24 | 32.22235 | -70.68395 | 35195 ft | 477 kts | 171° |
| 2026-04-23 14:24 | 32.15718 | -70.66851 | 35183 ft | 477 kts | 171° |
| 2026-04-23 14:25 | 32.09217 | -70.65314 | 35193 ft | 476 kts | 171° |
| 2026-04-23 14:25 | 32.02753 | -70.63787 | 35197 ft | 476 kts | 171° |
| 2026-04-23 14:26 | 31.96244 | -70.62252 | 35197 ft | 476 kts | 171° |
| 2026-04-23 14:26 | 31.89737 | -70.60719 | 35199 ft | 476 kts | 171° |
| 2026-04-23 14:27 | 31.83234 | -70.59190 | 35201 ft | 476 kts | 171° |
| 2026-04-23 14:27 | 31.76765 | -70.57671 | 35199 ft | 477 kts | 171° |
| 2026-04-23 14:28 | 31.70258 | -70.56145 | 35202 ft | 477 kts | 171° |
| 2026-04-23 14:28 | 31.63746 | -70.54619 | 35199 ft | 477 kts | 171° |
| 2026-04-23 14:29 | 31.57237 | -70.53095 | 35207 ft | 477 kts | 172° |
| 2026-04-23 14:29 | 31.50727 | -70.51577 | 35205 ft | 477 kts | 172° |
| 2026-04-23 14:30 | 31.44223 | -70.50060 | 35204 ft | 477 kts | 172° |
| 2026-04-23 14:30 | 31.37711 | -70.48547 | 35209 ft | 476 kts | 172° |
| 2026-04-23 14:31 | 31.31243 | -70.47048 | 35201 ft | 476 kts | 172° |
| 2026-04-23 14:31 | 31.24746 | -70.45544 | 35207 ft | 475 kts | 172° |
| 2026-04-23 14:32 | 31.18260 | -70.44044 | 35210 ft | 475 kts | 172° |
| 2026-04-23 14:32 | 31.11760 | -70.42543 | 35202 ft | 475 kts | 172° |
| 2026-04-23 14:33 | 31.05276 | -70.41047 | 35204 ft | 474 kts | 172° |
| 2026-04-23 14:33 | 30.98839 | -70.39565 | 35205 ft | 474 kts | 172° |
| 2026-04-23 14:34 | 30.92367 | -70.38076 | 35212 ft | 473 kts | 172° |
| 2026-04-23 14:34 | 30.85905 | -70.36592 | 35212 ft | 473 kts | 172° |
| 2026-04-23 14:35 | 30.79447 | -70.35111 | 35202 ft | 472 kts | 173° |
| 2026-04-23 14:35 | 30.73004 | -70.33635 | 35208 ft | 472 kts | 173° |
| 2026-04-23 14:36 | 30.66609 | -70.32172 | 35216 ft | 471 kts | 173° |
| 2026-04-23 14:36 | 30.60173 | -70.30702 | 35215 ft | 471 kts | 173° |
| 2026-04-23 14:37 | 30.53741 | -70.29234 | 35194 ft | 471 kts | 173° |
| 2026-04-23 14:37 | 30.47295 | -70.27765 | 35208 ft | 471 kts | 173° |
| 2026-04-23 14:38 | 30.40898 | -70.26309 | 35211 ft | 471 kts | 173° |
| 2026-04-23 14:38 | 30.34458 | -70.24846 | 35212 ft | 471 kts | 173° |
| 2026-04-23 14:39 | 30.29102 | -70.23629 | 35216 ft | 471 kts | 173° |
| 2026-04-23 14:39 | 30.21617 | -70.21930 | 35215 ft | 471 kts | 174° |
| 2026-04-23 14:40 | 30.16268 | -70.20717 | 35214 ft | 471 kts | 174° |
| 2026-04-23 14:40 | 30.09834 | -70.19251 | 35220 ft | 470 kts | 174° |
| 2026-04-23 14:41 | 30.03406 | -70.17799 | 35206 ft | 470 kts | 174° |
| 2026-04-23 14:41 | 29.97016 | -70.16360 | 35199 ft | 469 kts | 175° |
| 2026-04-23 14:42 | 29.90589 | -70.14911 | 35209 ft | 469 kts | 175° |
| 2026-04-23 14:42 | 29.84189 | -70.13469 | 35211 ft | 468 kts | 175° |
| 2026-04-23 14:43 | 29.77841 | -70.12040 | 35211 ft | 467 kts | 175° |
| 2026-04-23 14:43 | 29.71465 | -70.10607 | 35212 ft | 466 kts | 175° |
| 2026-04-23 14:44 | 29.65098 | -70.09181 | 35207 ft | 465 kts | 176° |
| 2026-04-23 14:44 | 29.58748 | -70.07756 | 35210 ft | 465 kts | 176° |
| 2026-04-23 14:45 | 29.52406 | -70.06335 | 35210 ft | 464 kts | 176° |
| 2026-04-23 14:45 | 29.46057 | -70.04916 | 35209 ft | 464 kts | 176° |
| 2026-04-23 14:46 | 29.39710 | -70.03498 | 35191 ft | 464 kts | 177° |
| 2026-04-23 14:46 | 29.33405 | -70.02092 | 35206 ft | 464 kts | 177° |
| 2026-04-23 14:47 | 29.27057 | -70.00679 | 35212 ft | 464 kts | 177° |
| 2026-04-23 14:47 | 29.20701 | -69.99265 | 35209 ft | 465 kts | 177° |
| 2026-04-23 14:48 | 29.14352 | -69.97855 | 35208 ft | 465 kts | 177° |
| 2026-04-23 14:48 | 29.07993 | -69.96444 | 35206 ft | 466 kts | 177° |
| 2026-04-23 14:49 | 29.01623 | -69.95032 | 35207 ft | 466 kts | 177° |
| 2026-04-23 14:49 | 28.95296 | -69.93632 | 35204 ft | 466 kts | 177° |
| 2026-04-23 14:50 | 28.88915 | -69.92221 | 35201 ft | 466 kts | 177° |
| 2026-04-23 14:50 | 28.82542 | -69.90813 | 35192 ft | 466 kts | 179° |
| 2026-04-23 14:51 | 28.76177 | -69.89409 | 35195 ft | 466 kts | 179° |
| 2026-04-23 14:51 | 28.69820 | -69.88009 | 35202 ft | 465 kts | 179° |
| 2026-04-23 14:52 | 28.63461 | -69.86610 | 35202 ft | 465 kts | 179° |
| 2026-04-23 14:52 | 28.57147 | -69.85222 | 35199 ft | 465 kts | 179° |
| 2026-04-23 14:53 | 28.50801 | -69.83829 | 35187 ft | 463 kts | 179° |
| 2026-04-23 14:53 | 28.44452 | -69.82439 | 35189 ft | 462 kts | 179° |
| 2026-04-23 14:54 | 28.38171 | -69.81064 | 35195 ft | 462 kts | 179° |
| 2026-04-23 14:54 | 28.31850 | -69.79682 | 35192 ft | 461 kts | 179° |
| 2026-04-23 14:55 | 28.25542 | -69.78305 | 35176 ft | 460 kts | 179° |
| 2026-04-23 14:55 | 28.19251 | -69.76933 | 35180 ft | 460 kts | 179° |
| 2026-04-23 14:56 | 28.13003 | -69.75572 | 35184 ft | 459 kts | 179° |
| 2026-04-23 14:56 | 28.06721 | -69.74205 | 35185 ft | 459 kts | 179° |
| 2026-04-23 14:57 | 28.00448 | -69.72842 | 35186 ft | 459 kts | 179° |
| 2026-04-23 14:57 | 27.94157 | -69.71476 | 35185 ft | 458 kts | 180° |
| 2026-04-23 14:58 | 27.87885 | -69.70117 | 35189 ft | 459 kts | 180° |
| 2026-04-23 14:58 | 27.81656 | -69.68768 | 35185 ft | 459 kts | 180° |
| 2026-04-23 14:59 | 27.75364 | -69.67407 | 35190 ft | 460 kts | 180° |
| 2026-04-23 14:59 | 27.69070 | -69.66049 | 35146 ft | 460 kts | 180° |
| 2026-04-23 15:00 | 27.62777 | -69.64693 | 35171 ft | 460 kts | 180° |
| 2026-04-23 15:00 | 27.56478 | -69.63337 | 35185 ft | 460 kts | 180° |
| 2026-04-23 15:01 | 27.50214 | -69.61990 | 35179 ft | 461 kts | 180° |
| 2026-04-23 15:01 | 27.43900 | -69.60634 | 35177 ft | 461 kts | 180° |
| 2026-04-23 15:02 | 27.37593 | -69.59280 | 35172 ft | 461 kts | 180° |
| 2026-04-23 15:02 | 27.31287 | -69.57928 | 35172 ft | 461 kts | 180° |
| 2026-04-23 15:03 | 27.24982 | -69.56578 | 35178 ft | 461 kts | 180° |
| 2026-04-23 15:03 | 27.18711 | -69.55237 | 35171 ft | 461 kts | 180° |
| 2026-04-23 15:04 | 27.12403 | -69.53890 | 35172 ft | 461 kts | 180° |
| 2026-04-23 15:04 | 27.06108 | -69.52546 | 35165 ft | 460 kts | 180° |
| 2026-04-23 15:05 | 26.99811 | -69.51204 | 35168 ft | 460 kts | 180° |
| 2026-04-23 15:05 | 26.93511 | -69.49864 | 35169 ft | 460 kts | 180° |
| 2026-04-23 15:06 | 26.87213 | -69.48525 | 35173 ft | 461 kts | 180° |
| 2026-04-23 15:06 | 26.80951 | -69.47194 | 35138 ft | 461 kts | 180° |
| 2026-04-23 15:07 | 26.74652 | -69.45857 | 35158 ft | 461 kts | 180° |
| 2026-04-23 15:07 | 26.68341 | -69.44520 | 35167 ft | 460 kts | 181° |
| 2026-04-23 15:08 | 26.62039 | -69.43188 | 35163 ft | 461 kts | 181° |
| 2026-04-23 15:09 | 26.52630 | -69.41201 | 35153 ft | 461 kts | 181° |
| 2026-04-23 15:09 | 26.46341 | -69.39873 | 35156 ft | 460 kts | 181° |
| 2026-04-23 15:10 | 26.41073 | -69.38763 | 35160 ft | 460 kts | 181° |
| 2026-04-23 15:10 | 26.33748 | -69.37220 | 35163 ft | 460 kts | 181° |
| 2026-04-23 15:11 | 26.27455 | -69.35897 | 35156 ft | 459 kts | 181° |
| 2026-04-23 15:11 | 26.21200 | -69.34583 | 35154 ft | 459 kts | 181° |
| 2026-04-23 15:12 | 26.14913 | -69.33264 | 35155 ft | 459 kts | 181° |
| 2026-04-23 15:12 | 26.08626 | -69.31947 | 35156 ft | 459 kts | 181° |
| 2026-04-23 15:13 | 26.02339 | -69.30630 | 35152 ft | 459 kts | 181° |
| 2026-04-23 15:13 | 25.96096 | -69.29325 | 35151 ft | 459 kts | 181° |
| 2026-04-23 15:14 | 25.89811 | -69.28011 | 35147 ft | 458 kts | 181° |
| 2026-04-23 15:14 | 25.83545 | -69.26704 | 35148 ft | 458 kts | 181° |
| 2026-04-23 15:15 | 25.77278 | -69.25398 | 35149 ft | 458 kts | 181° |
| 2026-04-23 15:15 | 25.70997 | -69.24090 | 35149 ft | 458 kts | 181° |
| 2026-04-23 15:16 | 25.64758 | -69.22793 | 35150 ft | 459 kts | 181° |
| 2026-04-23 15:16 | 25.58481 | -69.21488 | 35146 ft | 458 kts | 181° |
| 2026-04-23 15:17 | 25.52203 | -69.20185 | 35150 ft | 458 kts | 181° |
| 2026-04-23 15:17 | 25.45973 | -69.18893 | 35131 ft | 458 kts | 181° |
| 2026-04-23 15:18 | 25.39695 | -69.17593 | 35142 ft | 459 kts | 181° |
| 2026-04-23 15:18 | 25.33412 | -69.16293 | 35117 ft | 459 kts | 181° |
| 2026-04-23 15:19 | 25.27130 | -69.14994 | 35136 ft | 459 kts | 181° |
| 2026-04-23 15:19 | 25.20847 | -69.13697 | 35140 ft | 459 kts | 181° |
| 2026-04-23 15:20 | 25.15616 | -69.12618 | 35138 ft | 460 kts | 181° |
| 2026-04-23 15:20 | 25.08291 | -69.11108 | 35136 ft | 460 kts | 181° |
| 2026-04-23 15:21 | 25.01991 | -69.09810 | 35113 ft | 460 kts | 181° |
| 2026-04-23 15:21 | 24.95697 | -69.08427 | 35126 ft | 463 kts | 179° |
| 2026-04-23 15:22 | 24.89445 | -69.06853 | 35136 ft | 463 kts | 178° |
| 2026-04-23 15:22 | 24.83155 | -69.05263 | 35132 ft | 463 kts | 179° |
| 2026-04-23 15:23 | 24.76869 | -69.03705 | 35133 ft | 462 kts | 179° |
| 2026-04-23 15:23 | 24.70589 | -69.02162 | 35117 ft | 461 kts | 179° |
| 2026-04-23 15:24 | 24.64328 | -69.00627 | 35123 ft | 460 kts | 179° |
| 2026-04-23 15:24 | 24.58122 | -68.99107 | 35128 ft | 459 kts | 179° |
| 2026-04-23 15:25 | 24.51887 | -68.97580 | 35125 ft | 458 kts | 179° |
| 2026-04-23 15:25 | 24.46703 | -68.96312 | 35122 ft | 458 kts | 179° |
| 2026-04-23 15:26 | 24.39441 | -68.94537 | 35128 ft | 457 kts | 179° |
| 2026-04-23 15:26 | 24.33240 | -68.93012 | 35122 ft | 456 kts | 179° |
| 2026-04-23 15:27 | 24.28089 | -68.91742 | 35127 ft | 456 kts | 179° |
| 2026-04-23 15:27 | 24.21893 | -68.90216 | 35123 ft | 456 kts | 179° |
| 2026-04-23 15:28 | 24.15691 | -68.88691 | 35122 ft | 456 kts | 179° |
| 2026-04-23 15:28 | 24.09490 | -68.87168 | 35105 ft | 456 kts | 178° |
| 2026-04-23 15:29 | 24.03285 | -68.85645 | 35109 ft | 456 kts | 179° |
| 2026-04-23 15:29 | 23.97126 | -68.84136 | 35121 ft | 457 kts | 178° |
| 2026-04-23 15:30 | 23.90915 | -68.82615 | 35124 ft | 457 kts | 179° |
| 2026-04-23 15:30 | 23.84699 | -68.81094 | 35122 ft | 458 kts | 179° |
| 2026-04-23 15:31 | 23.78459 | -68.79568 | 35104 ft | 458 kts | 178° |
| 2026-04-23 15:31 | 23.72243 | -68.78050 | 35111 ft | 458 kts | 178° |
| 2026-04-23 15:32 | 23.66058 | -68.76540 | 35118 ft | 457 kts | 178° |
| 2026-04-23 15:32 | 23.59851 | -68.75027 | 35109 ft | 457 kts | 178° |
| 2026-04-23 15:33 | 23.53650 | -68.73421 | 35120 ft | 459 kts | 176° |
| 2026-04-23 15:33 | 23.47465 | -68.71625 | 35092 ft | 460 kts | 175° |
| 2026-04-23 15:34 | 23.41295 | -68.69819 | 35108 ft | 459 kts | 176° |
| 2026-04-23 15:34 | 23.35156 | -68.68049 | 35113 ft | 458 kts | 176° |
| 2026-04-23 15:35 | 23.28987 | -68.66289 | 35109 ft | 458 kts | 176° |
| 2026-04-23 15:35 | 23.22814 | -68.64533 | 35107 ft | 458 kts | 176° |
| 2026-04-23 15:36 | 23.16652 | -68.62781 | 35106 ft | 458 kts | 176° |
| 2026-04-23 15:36 | 23.10471 | -68.61027 | 35117 ft | 461 kts | 176° |
| 2026-04-23 15:37 | 23.04220 | -68.59258 | 35110 ft | 467 kts | 176° |
| 2026-04-23 15:37 | 22.97908 | -68.57470 | 35106 ft | 471 kts | 175° |
| 2026-04-23 15:38 | 22.91574 | -68.55672 | 35099 ft | 473 kts | 175° |
| 2026-04-23 15:38 | 22.85193 | -68.53863 | 35081 ft | 474 kts | 175° |
| 2026-04-23 15:39 | 22.78835 | -68.52063 | 35091 ft | 474 kts | 175° |
| 2026-04-23 15:39 | 22.72450 | -68.50258 | 35096 ft | 474 kts | 175° |
| 2026-04-23 15:40 | 22.66049 | -68.48451 | 35095 ft | 474 kts | 175° |
| 2026-04-23 15:40 | 22.59659 | -68.46649 | 35088 ft | 474 kts | 175° |
| 2026-04-23 15:41 | 22.53269 | -68.44848 | 35076 ft | 473 kts | 175° |
| 2026-04-23 15:41 | 22.46940 | -68.43067 | 35081 ft | 472 kts | 175° |
| 2026-04-23 15:42 | 22.40582 | -68.41280 | 35088 ft | 472 kts | 175° |
| 2026-04-23 15:42 | 22.34218 | -68.39492 | 35087 ft | 472 kts | 175° |
| 2026-04-23 15:43 | 22.27842 | -68.37703 | 35090 ft | 472 kts | 175° |
| 2026-04-23 15:43 | 22.21517 | -68.35930 | 35072 ft | 472 kts | 175° |
| 2026-04-23 15:44 | 22.15166 | -68.34150 | 35082 ft | 471 kts | 175° |
| 2026-04-23 15:44 | 22.08809 | -68.32371 | 35080 ft | 471 kts | 175° |
| 2026-04-23 15:45 | 22.02453 | -68.30595 | 35076 ft | 471 kts | 175° |
| 2026-04-23 15:45 | 21.96103 | -68.28821 | 35080 ft | 471 kts | 175° |
| 2026-04-23 15:46 | 21.89754 | -68.27049 | 35073 ft | 471 kts | 175° |
| 2026-04-23 15:46 | 21.83408 | -68.25279 | 35081 ft | 471 kts | 175° |
| 2026-04-23 15:47 | 21.77066 | -68.23513 | 35081 ft | 471 kts | 175° |
| 2026-04-23 15:47 | 21.70766 | -68.21760 | 35078 ft | 471 kts | 175° |
| 2026-04-23 15:48 | 21.64425 | -68.19997 | 35073 ft | 471 kts | 175° |
| 2026-04-23 15:48 | 21.58074 | -68.18233 | 35054 ft | 470 kts | 175° |
| 2026-04-23 15:49 | 21.51727 | -68.16471 | 35069 ft | 471 kts | 175° |
| 2026-04-23 15:49 | 21.45369 | -68.14708 | 35070 ft | 471 kts | 175° |
| 2026-04-23 15:50 | 21.39056 | -68.12959 | 35067 ft | 472 kts | 175° |
| 2026-04-23 15:50 | 21.32690 | -68.11197 | 35067 ft | 472 kts | 175° |
| 2026-04-23 15:51 | 21.26329 | -68.09438 | 35054 ft | 472 kts | 174° |
| 2026-04-23 15:51 | 21.19956 | -68.07676 | 35063 ft | 472 kts | 174° |
| 2026-04-23 15:52 | 21.13585 | -68.05917 | 35063 ft | 473 kts | 174° |
| 2026-04-23 15:52 | 21.07248 | -68.04169 | 35066 ft | 473 kts | 174° |
| 2026-04-23 15:53 | 21.00862 | -68.02409 | 35063 ft | 473 kts | 174° |
| 2026-04-23 15:53 | 20.94469 | -68.00648 | 35047 ft | 473 kts | 174° |
| 2026-04-23 15:54 | 20.88078 | -67.99269 | 35050 ft | 458 kts | 187° |
| 2026-04-23 15:54 | 20.84932 | -67.99435 | 35067 ft | 447 kts | 196° |
| 2026-04-23 15:54 | 20.81925 | -68.00113 | 35059 ft | 437 kts | 205° |
| 2026-04-23 15:55 | 20.76339 | -68.02422 | 35057 ft | 433 kts | 208° |
| 2026-04-23 15:55 | 20.70733 | -68.04791 | 35055 ft | 434 kts | 208° |
| 2026-04-23 15:56 | 20.65098 | -68.07135 | 35040 ft | 434 kts | 208° |
| 2026-04-23 15:56 | 20.59461 | -68.09459 | 35050 ft | 434 kts | 208° |
| 2026-04-23 15:57 | 20.53830 | -68.11773 | 35055 ft | 434 kts | 208° |
| 2026-04-23 15:57 | 20.48182 | -68.14092 | 35052 ft | 434 kts | 208° |
| 2026-04-23 15:58 | 20.42578 | -68.16392 | 35052 ft | 434 kts | 208° |
| 2026-04-23 15:58 | 20.36939 | -68.18705 | 35055 ft | 434 kts | 207° |
| 2026-04-23 15:59 | 20.31289 | -68.21021 | 35048 ft | 434 kts | 207° |
| 2026-04-23 15:59 | 20.28467 | -68.22177 | 34859 ft | 436 kts | 207° |
| 2026-04-23 15:59 | 20.25630 | -68.23339 | 34290 ft | 434 kts | 207° |
| 2026-04-23 15:59 | 20.22791 | -68.24502 | 33343 ft | 438 kts | 207° |
| 2026-04-23 16:00 | 20.19974 | -68.25655 | 32530 ft | 439 kts | 207° |
| 2026-04-23 16:00 | 20.17133 | -68.26816 | 31962 ft | 434 kts | 207° |
| 2026-04-23 16:00 | 20.14318 | -68.27964 | 31369 ft | 431 kts | 207° |
| 2026-04-23 16:00 | 20.11528 | -68.29102 | 30808 ft | 428 kts | 207° |
| 2026-04-23 16:01 | 20.08745 | -68.30238 | 30222 ft | 425 kts | 207° |
| 2026-04-23 16:01 | 20.05993 | -68.31362 | 29585 ft | 423 kts | 207° |
| 2026-04-23 16:01 | 20.03254 | -68.32480 | 28984 ft | 419 kts | 206° |
| 2026-04-23 16:01 | 20.00544 | -68.33586 | 28412 ft | 416 kts | 206° |
| 2026-04-23 16:02 | 19.97887 | -68.34669 | 27863 ft | 412 kts | 206° |
| 2026-04-23 16:02 | 19.95223 | -68.35755 | 27326 ft | 409 kts | 206° |
| 2026-04-23 16:02 | 19.92569 | -68.36838 | 26789 ft | 406 kts | 206° |
| 2026-04-23 16:02 | 19.89932 | -68.37913 | 26258 ft | 404 kts | 206° |
| 2026-04-23 16:03 | 19.87311 | -68.38981 | 25724 ft | 403 kts | 206° |
| 2026-04-23 16:03 | 19.84687 | -68.40051 | 25176 ft | 403 kts | 206° |
| 2026-04-23 16:03 | 19.82065 | -68.41119 | 24633 ft | 403 kts | 205° |
| 2026-04-23 16:03 | 19.79453 | -68.42183 | 24092 ft | 403 kts | 205° |
| 2026-04-23 16:04 | 19.76832 | -68.43247 | 23524 ft | 402 kts | 204° |
| 2026-04-23 16:04 | 19.74220 | -68.44306 | 22934 ft | 401 kts | 204° |
| 2026-04-23 16:04 | 19.71626 | -68.45361 | 22388 ft | 398 kts | 204° |
| 2026-04-23 16:04 | 19.69040 | -68.46413 | 21853 ft | 396 kts | 204° |
| 2026-04-23 16:05 | 19.67338 | -68.47105 | 21502 ft | 394 kts | 203° |
| 2026-04-23 16:05 | 19.63961 | -68.48477 | 20826 ft | 391 kts | 203° |
| 2026-04-23 16:05 | 19.61423 | -68.49508 | 20318 ft | 389 kts | 203° |
| 2026-04-23 16:05 | 19.58900 | -68.50532 | 19797 ft | 387 kts | 203° |
| 2026-04-23 16:06 | 19.56385 | -68.51553 | 19288 ft | 386 kts | 202° |
| 2026-04-23 16:06 | 19.53875 | -68.52571 | 18770 ft | 385 kts | 202° |
| 2026-04-23 16:06 | 19.51375 | -68.53584 | 18247 ft | 384 kts | 202° |
| 2026-04-23 16:06 | 19.48889 | -68.54592 | 17683 ft | 382 kts | 202° |
| 2026-04-23 16:07 | 19.46416 | -68.55593 | 17164 ft | 379 kts | 202° |
| 2026-04-23 16:07 | 19.43961 | -68.56588 | 16669 ft | 376 kts | 202° |
| 2026-04-23 16:07 | 19.41588 | -68.57549 | 16518 ft | 364 kts | 202° |
| 2026-04-23 16:07 | 19.39257 | -68.58491 | 16341 ft | 353 kts | 202° |
| 2026-04-23 16:08 | 19.36998 | -68.59405 | 16189 ft | 342 kts | 202° |
| 2026-04-23 16:08 | 19.34826 | -68.60343 | 16032 ft | 331 kts | 211° |
| 2026-04-23 16:08 | 19.33077 | -68.61821 | 15964 ft | 315 kts | 228° |
| 2026-04-23 16:08 | 19.31622 | -68.63497 | 15891 ft | 305 kts | 230° |
| 2026-04-23 16:09 | 19.30226 | -68.65163 | 15826 ft | 302 kts | 230° |
| 2026-04-23 16:09 | 19.28816 | -68.66850 | 15767 ft | 309 kts | 230° |
| 2026-04-23 16:09 | 19.27373 | -68.68567 | 15691 ft | 314 kts | 229° |
| 2026-04-23 16:09 | 19.25917 | -68.70286 | 15606 ft | 313 kts | 229° |
| 2026-04-23 16:10 | 19.24459 | -68.71999 | 15526 ft | 311 kts | 229° |
| 2026-04-23 16:10 | 19.23033 | -68.73670 | 15448 ft | 309 kts | 229° |
| 2026-04-23 16:10 | 19.21596 | -68.75351 | 15381 ft | 307 kts | 229° |
| 2026-04-23 16:10 | 19.20162 | -68.77027 | 15309 ft | 307 kts | 229° |
| 2026-04-23 16:11 | 19.18731 | -68.78699 | 15232 ft | 306 kts | 229° |
| 2026-04-23 16:11 | 19.17301 | -68.80367 | 15162 ft | 303 kts | 229° |
| 2026-04-23 16:11 | 19.15903 | -68.81997 | 15073 ft | 293 kts | 229° |
| 2026-04-23 16:11 | 19.14450 | -68.83453 | 14978 ft | 284 kts | 213° |
| 2026-04-23 16:12 | 19.12608 | -68.84171 | 14708 ft | 287 kts | 187° |
| 2026-04-23 16:12 | 19.10621 | -68.83950 | 14446 ft | 291 kts | 163° |
| 2026-04-23 16:12 | 19.08755 | -68.83165 | 14182 ft | 294 kts | 159° |
| 2026-04-23 16:12 | 19.06861 | -68.82263 | 13879 ft | 295 kts | 158° |
| 2026-04-23 16:13 | 19.05013 | -68.81366 | 13569 ft | 296 kts | 158° |
| 2026-04-23 16:13 | 19.01358 | -68.79584 | 13067 ft | 292 kts | 157° |
| 2026-04-23 16:13 | 18.99516 | -68.78685 | 12842 ft | 289 kts | 157° |
| 2026-04-23 16:14 | 18.97700 | -68.77800 | 12637 ft | 286 kts | 157° |
| 2026-04-23 16:14 | 18.96503 | -68.77217 | 12513 ft | 283 kts | 157° |
| 2026-04-23 16:14 | 18.94158 | -68.76077 | 12302 ft | 277 kts | 157° |
| 2026-04-23 16:14 | 18.92413 | -68.75230 | 12189 ft | 276 kts | 157° |
| 2026-04-23 16:15 | 18.90654 | -68.74377 | 12093 ft | 279 kts | 157° |
| 2026-04-23 16:15 | 18.89457 | -68.73794 | 12052 ft | 281 kts | 157° |
| 2026-04-23 16:15 | 18.87692 | -68.72940 | 12020 ft | 283 kts | 157° |
| 2026-04-23 16:15 | 18.85922 | -68.72087 | 11963 ft | 276 kts | 157° |
| 2026-04-23 16:16 | 18.84195 | -68.71255 | 11778 ft | 271 kts | 157° |
| 2026-04-23 16:16 | 18.82482 | -68.70426 | 11477 ft | 270 kts | 157° |
| 2026-04-23 16:16 | 18.80760 | -68.69599 | 11075 ft | 274 kts | 158° |
| 2026-04-23 16:16 | 18.79003 | -68.68757 | 10631 ft | 280 kts | 158° |
| 2026-04-23 16:17 | 18.77208 | -68.67893 | 10180 ft | 286 kts | 158° |
| 2026-04-23 16:17 | 18.75379 | -68.67011 | 9698 ft | 292 kts | 157° |
| 2026-04-23 16:17 | 18.73510 | -68.66124 | 9182 ft | 297 kts | 157° |
| 2026-04-23 16:17 | 18.71613 | -68.65243 | 8603 ft | 298 kts | 158° |
| 2026-04-23 16:18 | 18.69737 | -68.64377 | 8049 ft | 297 kts | 157° |
| 2026-04-23 16:18 | 18.67841 | -68.63514 | 7499 ft | 297 kts | 157° |
| 2026-04-23 16:18 | 18.65945 | -68.62660 | 6944 ft | 296 kts | 157° |
| 2026-04-23 16:18 | 18.64053 | -68.61817 | 6406 ft | 295 kts | 157° |
| 2026-04-23 16:19 | 18.62157 | -68.60979 | 5714 ft | 297 kts | 157° |
| 2026-04-23 16:19 | 18.60215 | -68.60125 | 4823 ft | 306 kts | 157° |
| 2026-04-23 16:19 | 18.58216 | -68.59250 | 3886 ft | 314 kts | 157° |
| 2026-04-23 16:19 | 18.56204 | -68.58375 | 3385 ft | 307 kts | 157° |
| 2026-04-23 16:20 | 18.54347 | -68.57423 | 3193 ft | 288 kts | 142° |
| 2026-04-23 16:20 | 18.53191 | -68.55820 | 3044 ft | 269 kts | 108° |
| 2026-04-23 16:20 | 18.53026 | -68.53951 | 3007 ft | 247 kts | 84° |
| 2026-04-23 16:20 | 18.53273 | -68.52206 | 2735 ft | 235 kts | 78° |
| 2026-04-23 16:21 | 18.53678 | -68.50585 | 2450 ft | 223 kts | 73° |
| 2026-04-23 16:21 | 18.54101 | -68.49078 | 2152 ft | 209 kts | 73° |
| 2026-04-23 16:21 | 18.54491 | -68.47652 | 1891 ft | 196 kts | 74° |
| 2026-04-23 16:21 | 18.54853 | -68.46315 | 1633 ft | 185 kts | 73° |
| 2026-04-23 16:22 | 18.55195 | -68.45053 | 1384 ft | 173 kts | 74° |
| 2026-04-23 16:22 | 18.55509 | -68.43898 | 1181 ft | 156 kts | 73° |
| 2026-04-23 16:22 | 18.55793 | -68.42850 | 1010 ft | 144 kts | 73° |
| 2026-04-23 16:22 | 18.56066 | -68.41851 | 817 ft | 140 kts | 73° |
| 2026-04-23 16:23 | 18.56334 | -68.40862 | 666 ft | 144 kts | 75° |
| 2026-04-23 16:23 | 18.56615 | -68.39827 | 440 ft | 149 kts | 76° |
| 2026-04-23 16:23 | 18.56901 | -68.38774 | 221 ft | 150 kts | 76° |
| 2026-04-23 16:23 | 18.57183 | -68.37750 | 51 ft | 135 kts | 77° |
| 2026-04-23 16:24 | 18.57419 | -68.36891 | 48 ft | 109 kts | 73° |
| 2026-04-23 16:24 | 18.57575 | -68.36321 | 45 ft | 36 kts | 75° |
| 2026-04-23 16:24 | 18.57602 | -68.36108 | 49 ft | 21 kts | 94° |
| 2026-04-23 16:24 | 18.57580 | -68.35984 | 47 ft | 17 kts | 104° |
| 2026-04-23 16:25 | 18.57533 | -68.35880 | 49 ft | 14 kts | 131° |
| 2026-04-23 16:25 | 18.57450 | -68.35839 | 50 ft | 13 kts | 171° |
| 2026-04-23 16:25 | 18.57357 | -68.35831 | 50 ft | 15 kts | 176° |
| 2026-04-23 16:25 | 18.57237 | -68.35824 | 47 ft | 20 kts | 176° |
| 2026-04-23 16:26 | 18.57084 | -68.35816 | 49 ft | 24 kts | 177° |
| 2026-04-23 16:26 | 18.56982 | -68.35825 | 49 ft | 10 kts | 228° |
| 2026-04-23 16:26 | 18.56968 | -68.35893 | 49 ft | 10 kts | 264° |
| 2026-04-23 16:26 | 18.56959 | -68.35979 | 49 ft | 14 kts | 265° |
| 2026-04-23 16:27 | 18.56950 | -68.36095 | 49 ft | 18 kts | 264° |
| 2026-04-23 16:27 | 18.56937 | -68.36241 | 49 ft | 20 kts | 265° |
| 2026-04-23 16:27 | 18.56925 | -68.36388 | 50 ft | 20 kts | 265° |
| 2026-04-23 16:27 | 18.56912 | -68.36530 | 50 ft | 19 kts | 264° |
| 2026-04-23 16:28 | 18.56900 | -68.36667 | 50 ft | 18 kts | 264° |
| 2026-04-23 16:28 | 18.56878 | -68.36749 | 50 ft | 9 kts | 220° |
| 2026-04-23 16:28 | 18.56817 | -68.36755 | 51 ft | 9 kts | 174° |
| 2026-04-23 16:28 | 18.56749 | -68.36750 | 52 ft | 10 kts | 180° |
| 2026-04-23 16:29 | 18.56681 | -68.36754 | 50 ft | 10 kts | 182° |
| 2026-04-23 16:29 | 18.56592 | -68.36755 | 50 ft | 15 kts | 181° |
| 2026-04-23 16:29 | 18.56523 | -68.36781 | 49 ft | 10 kts | 246° |
| 2026-04-23 16:29 | 18.56515 | -68.36854 | 49 ft | 10 kts | 264° |
| 2026-04-23 16:30 | 18.56507 | -68.36943 | 49 ft | 14 kts | 265° |
| 2026-04-23 16:30 | 18.56465 | -68.37014 | 49 ft | 10 kts | 186° |
| 2026-04-23 16:30 | 18.56427 | -68.36981 | 48 ft | 6 kts | 98° |
| 2026-04-23 16:30 | 18.56429 | -68.36942 | 49 ft | 5 kts | 86° |
| 2026-04-23 16:31 | 18.56432 | -68.36912 | 49 ft | 1 kts | 85° |
| 2026-04-23 16:31 | 18.56432 | -68.36908 | 49 ft | 0 kts | 85° |
| 2026-04-23 16:31 | 18.56432 | -68.36906 | 49 ft | 0 kts | 85° |